sensor_id;sensor_type;location;lat;lon;timestamp;P1;durP1;ratioP1;P2;durP2;ratioP2
4827;SDS011;2428;48.732;9.148;2022-08-19T00:01:50;10.90;;;8.23;;
4827;SDS011;2428;48.732;9.148;2022-08-19T00:04:18;12.33;;;9.60;;
4827;SDS011;2428;48.732;9.148;2022-08-19T00:06:46;11.97;;;8.63;;
4827;SDS011;2428;48.732;9.148;2022-08-19T00:09:12;14.37;;;10.80;;
4827;SDS011;2428;48.732;9.148;2022-08-19T00:11:39;13.87;;;9.30;;
4827;SDS011;2428;48.732;9.148;2022-08-19T00:14:06;10.37;;;8.60;;
4827;SDS011;2428;48.732;9.148;2022-08-19T00:16:34;11.43;;;9.43;;
4827;SDS011;2428;48.732;9.148;2022-08-19T00:19:01;12.87;;;8.70;;
4827;SDS011;2428;48.732;9.148;2022-08-19T00:21:27;11.87;;;9.70;;
4827;SDS011;2428;48.732;9.148;2022-08-19T00:23:53;12.63;;;10.40;;
4827;SDS011;2428;48.732;9.148;2022-08-19T00:26:23;10.20;;;8.57;;
4827;SDS011;2428;48.732;9.148;2022-08-19T00:28:49;10.27;;;8.67;;
4827;SDS011;2428;48.732;9.148;2022-08-19T00:31:15;11.17;;;9.73;;
4827;SDS011;2428;48.732;9.148;2022-08-19T00:33:41;9.57;;;8.10;;
4827;SDS011;2428;48.732;9.148;2022-08-19T00:36:08;10.70;;;8.03;;
4827;SDS011;2428;48.732;9.148;2022-08-19T00:38:34;9.93;;;7.80;;
4827;SDS011;2428;48.732;9.148;2022-08-19T00:41:03;12.30;;;8.47;;
4827;SDS011;2428;48.732;9.148;2022-08-19T00:43:31;11.30;;;8.83;;
4827;SDS011;2428;48.732;9.148;2022-08-19T00:45:58;11.63;;;8.10;;
4827;SDS011;2428;48.732;9.148;2022-08-19T00:48:24;13.37;;;9.30;;
4827;SDS011;2428;48.732;9.148;2022-08-19T00:50:50;10.00;;;8.00;;
4827;SDS011;2428;48.732;9.148;2022-08-19T00:53:20;11.20;;;9.33;;
4827;SDS011;2428;48.732;9.148;2022-08-19T00:55:50;12.97;;;9.23;;
4827;SDS011;2428;48.732;9.148;2022-08-19T00:58:18;11.00;;;8.77;;
4827;SDS011;2428;48.732;9.148;2022-08-19T01:00:46;11.90;;;8.80;;
4827;SDS011;2428;48.732;9.148;2022-08-19T01:03:13;13.67;;;9.83;;
4827;SDS011;2428;48.732;9.148;2022-08-19T01:05:42;13.40;;;9.03;;
4827;SDS011;2428;48.732;9.148;2022-08-19T01:08:09;11.97;;;9.50;;
4827;SDS011;2428;48.732;9.148;2022-08-19T01:10:37;12.03;;;8.10;;
4827;SDS011;2428;48.732;9.148;2022-08-19T01:13:06;12.30;;;8.50;;
4827;SDS011;2428;48.732;9.148;2022-08-19T01:15:35;10.50;;;8.90;;
4827;SDS011;2428;48.732;9.148;2022-08-19T01:18:07;13.57;;;9.50;;
4827;SDS011;2428;48.732;9.148;2022-08-19T01:20:35;12.53;;;9.60;;
4827;SDS011;2428;48.732;9.148;2022-08-19T01:23:01;13.43;;;9.80;;
4827;SDS011;2428;48.732;9.148;2022-08-19T01:25:29;12.87;;;9.30;;
4827;SDS011;2428;48.732;9.148;2022-08-19T01:28:06;11.13;;;8.70;;
4827;SDS011;2428;48.732;9.148;2022-08-19T01:30:33;11.63;;;9.63;;
4827;SDS011;2428;48.732;9.148;2022-08-19T01:32:59;12.03;;;8.40;;
4827;SDS011;2428;48.732;9.148;2022-08-19T01:35:27;14.10;;;11.03;;
4827;SDS011;2428;48.732;9.148;2022-08-19T01:37:55;15.53;;;9.67;;
4827;SDS011;2428;48.732;9.148;2022-08-19T01:40:25;11.70;;;9.37;;
4827;SDS011;2428;48.732;9.148;2022-08-19T01:42:54;15.20;;;10.37;;
4827;SDS011;2428;48.732;9.148;2022-08-19T01:45:21;11.43;;;8.63;;
4827;SDS011;2428;48.732;9.148;2022-08-19T01:47:48;13.57;;;9.50;;
4827;SDS011;2428;48.732;9.148;2022-08-19T01:50:15;13.93;;;9.97;;
4827;SDS011;2428;48.732;9.148;2022-08-19T01:52:41;14.17;;;10.10;;
4827;SDS011;2428;48.732;9.148;2022-08-19T01:55:10;13.40;;;9.00;;
4827;SDS011;2428;48.732;9.148;2022-08-19T01:57:37;13.83;;;9.77;;
4827;SDS011;2428;48.732;9.148;2022-08-19T02:00:05;14.93;;;10.33;;
4827;SDS011;2428;48.732;9.148;2022-08-19T02:02:33;13.90;;;9.53;;
4827;SDS011;2428;48.732;9.148;2022-08-19T02:04:59;14.73;;;9.60;;
4827;SDS011;2428;48.732;9.148;2022-08-19T02:07:24;13.70;;;10.37;;
4827;SDS011;2428;48.732;9.148;2022-08-19T02:09:50;12.07;;;9.43;;
4827;SDS011;2428;48.732;9.148;2022-08-19T02:12:16;16.23;;;10.97;;
4827;SDS011;2428;48.732;9.148;2022-08-19T02:14:42;13.30;;;9.97;;
4827;SDS011;2428;48.732;9.148;2022-08-19T02:17:08;16.37;;;10.40;;
4827;SDS011;2428;48.732;9.148;2022-08-19T02:19:33;14.63;;;9.60;;
4827;SDS011;2428;48.732;9.148;2022-08-19T02:21:59;14.30;;;10.43;;
4827;SDS011;2428;48.732;9.148;2022-08-19T02:24:26;15.00;;;9.60;;
4827;SDS011;2428;48.732;9.148;2022-08-19T02:26:52;14.70;;;9.73;;
4827;SDS011;2428;48.732;9.148;2022-08-19T02:29:18;15.00;;;10.63;;
4827;SDS011;2428;48.732;9.148;2022-08-19T02:31:44;15.30;;;9.73;;
4827;SDS011;2428;48.732;9.148;2022-08-19T02:34:09;14.17;;;10.23;;
4827;SDS011;2428;48.732;9.148;2022-08-19T02:36:35;14.67;;;11.57;;
4827;SDS011;2428;48.732;9.148;2022-08-19T02:39:01;16.87;;;10.90;;
4827;SDS011;2428;48.732;9.148;2022-08-19T02:41:29;15.10;;;10.60;;
4827;SDS011;2428;48.732;9.148;2022-08-19T02:43:56;15.67;;;10.40;;
4827;SDS011;2428;48.732;9.148;2022-08-19T02:46:24;12.43;;;10.40;;
4827;SDS011;2428;48.732;9.148;2022-08-19T02:48:53;16.53;;;11.57;;
4827;SDS011;2428;48.732;9.148;2022-08-19T02:51:26;14.53;;;10.20;;
4827;SDS011;2428;48.732;9.148;2022-08-19T02:53:56;16.70;;;10.43;;
4827;SDS011;2428;48.732;9.148;2022-08-19T02:56:22;15.13;;;10.73;;
4827;SDS011;2428;48.732;9.148;2022-08-19T02:58:49;14.63;;;11.00;;
4827;SDS011;2428;48.732;9.148;2022-08-19T03:01:19;15.50;;;11.03;;
4827;SDS011;2428;48.732;9.148;2022-08-19T03:03:51;15.93;;;10.60;;
4827;SDS011;2428;48.732;9.148;2022-08-19T03:06:17;14.57;;;10.23;;
4827;SDS011;2428;48.732;9.148;2022-08-19T03:08:44;15.33;;;11.50;;
4827;SDS011;2428;48.732;9.148;2022-08-19T03:11:15;21.60;;;12.33;;
4827;SDS011;2428;48.732;9.148;2022-08-19T03:13:42;15.30;;;10.87;;
4827;SDS011;2428;48.732;9.148;2022-08-19T03:16:08;16.07;;;10.77;;
4827;SDS011;2428;48.732;9.148;2022-08-19T03:18:35;18.97;;;12.50;;
4827;SDS011;2428;48.732;9.148;2022-08-19T03:21:00;15.50;;;11.80;;
4827;SDS011;2428;48.732;9.148;2022-08-19T03:23:26;15.30;;;10.57;;
4827;SDS011;2428;48.732;9.148;2022-08-19T03:25:52;13.40;;;11.00;;
4827;SDS011;2428;48.732;9.148;2022-08-19T03:28:19;17.60;;;11.53;;
4827;SDS011;2428;48.732;9.148;2022-08-19T03:31:01;15.93;;;11.50;;
4827;SDS011;2428;48.732;9.148;2022-08-19T03:33:29;15.97;;;11.67;;
4827;SDS011;2428;48.732;9.148;2022-08-19T03:35:59;17.63;;;11.57;;
4827;SDS011;2428;48.732;9.148;2022-08-19T03:38:32;19.90;;;12.17;;
4827;SDS011;2428;48.732;9.148;2022-08-19T03:40:58;14.80;;;12.30;;
4827;SDS011;2428;48.732;9.148;2022-08-19T03:43:27;17.57;;;12.00;;
4827;SDS011;2428;48.732;9.148;2022-08-19T03:46:00;18.37;;;12.50;;
4827;SDS011;2428;48.732;9.148;2022-08-19T03:48:29;22.60;;;13.30;;
4827;SDS011;2428;48.732;9.148;2022-08-19T03:50:55;19.00;;;12.90;;
4827;SDS011;2428;48.732;9.148;2022-08-19T03:53:22;17.57;;;11.73;;
4827;SDS011;2428;48.732;9.148;2022-08-19T03:55:48;21.07;;;13.87;;
4827;SDS011;2428;48.732;9.148;2022-08-19T03:58:13;16.50;;;11.17;;
4827;SDS011;2428;48.732;9.148;2022-08-19T04:00:41;20.77;;;13.80;;
4827;SDS011;2428;48.732;9.148;2022-08-19T04:03:07;15.87;;;12.00;;
4827;SDS011;2428;48.732;9.148;2022-08-19T04:05:33;17.70;;;13.10;;
4827;SDS011;2428;48.732;9.148;2022-08-19T04:07:59;16.43;;;11.33;;
4827;SDS011;2428;48.732;9.148;2022-08-19T04:10:25;17.63;;;12.50;;
4827;SDS011;2428;48.732;9.148;2022-08-19T04:12:51;19.10;;;13.60;;
4827;SDS011;2428;48.732;9.148;2022-08-19T04:15:17;16.27;;;12.00;;
4827;SDS011;2428;48.732;9.148;2022-08-19T04:17:43;19.00;;;12.93;;
4827;SDS011;2428;48.732;9.148;2022-08-19T04:20:08;22.90;;;13.40;;
4827;SDS011;2428;48.732;9.148;2022-08-19T04:22:34;17.80;;;13.33;;
4827;SDS011;2428;48.732;9.148;2022-08-19T04:25:00;22.37;;;14.33;;
4827;SDS011;2428;48.732;9.148;2022-08-19T04:27:26;21.60;;;13.97;;
4827;SDS011;2428;48.732;9.148;2022-08-19T04:29:52;18.03;;;13.30;;
4827;SDS011;2428;48.732;9.148;2022-08-19T04:32:19;20.80;;;13.30;;
4827;SDS011;2428;48.732;9.148;2022-08-19T04:34:45;22.50;;;14.23;;
4827;SDS011;2428;48.732;9.148;2022-08-19T04:37:11;17.77;;;12.37;;
4827;SDS011;2428;48.732;9.148;2022-08-19T04:39:37;19.43;;;12.83;;
4827;SDS011;2428;48.732;9.148;2022-08-19T04:42:22;19.63;;;12.13;;
4827;SDS011;2428;48.732;9.148;2022-08-19T04:45:06;20.10;;;12.53;;
4827;SDS011;2428;48.732;9.148;2022-08-19T04:47:37;21.93;;;14.60;;
4827;SDS011;2428;48.732;9.148;2022-08-19T04:50:04;18.50;;;12.20;;
4827;SDS011;2428;48.732;9.148;2022-08-19T04:52:31;19.50;;;13.53;;
4827;SDS011;2428;48.732;9.148;2022-08-19T04:54:57;19.53;;;13.23;;
4827;SDS011;2428;48.732;9.148;2022-08-19T04:57:23;20.33;;;13.07;;
4827;SDS011;2428;48.732;9.148;2022-08-19T04:59:49;22.07;;;13.37;;
4827;SDS011;2428;48.732;9.148;2022-08-19T05:02:19;20.17;;;13.73;;
4827;SDS011;2428;48.732;9.148;2022-08-19T05:04:45;23.57;;;15.00;;
4827;SDS011;2428;48.732;9.148;2022-08-19T05:07:10;19.03;;;12.73;;
4827;SDS011;2428;48.732;9.148;2022-08-19T05:09:36;18.93;;;14.10;;
4827;SDS011;2428;48.732;9.148;2022-08-19T05:12:02;21.03;;;12.83;;
4827;SDS011;2428;48.732;9.148;2022-08-19T05:14:28;18.93;;;11.97;;
4827;SDS011;2428;48.732;9.148;2022-08-19T05:16:54;17.93;;;13.10;;
4827;SDS011;2428;48.732;9.148;2022-08-19T05:19:19;21.87;;;13.63;;
4827;SDS011;2428;48.732;9.148;2022-08-19T05:22:03;18.70;;;12.70;;
4827;SDS011;2428;48.732;9.148;2022-08-19T05:24:48;18.10;;;11.23;;
4827;SDS011;2428;48.732;9.148;2022-08-19T05:27:13;16.97;;;12.53;;
4827;SDS011;2428;48.732;9.148;2022-08-19T05:29:39;18.47;;;12.93;;
4827;SDS011;2428;48.732;9.148;2022-08-19T05:32:05;19.97;;;13.20;;
4827;SDS011;2428;48.732;9.148;2022-08-19T05:34:34;20.60;;;13.60;;
4827;SDS011;2428;48.732;9.148;2022-08-19T05:37:00;18.10;;;12.03;;
4827;SDS011;2428;48.732;9.148;2022-08-19T05:39:28;20.70;;;12.77;;
4827;SDS011;2428;48.732;9.148;2022-08-19T05:42:03;20.00;;;13.63;;
4827;SDS011;2428;48.732;9.148;2022-08-19T05:44:35;19.57;;;13.70;;
4827;SDS011;2428;48.732;9.148;2022-08-19T05:47:05;22.30;;;12.50;;
4827;SDS011;2428;48.732;9.148;2022-08-19T05:49:33;18.37;;;13.30;;
4827;SDS011;2428;48.732;9.148;2022-08-19T05:52:07;21.43;;;14.50;;
4827;SDS011;2428;48.732;9.148;2022-08-19T05:54:36;19.50;;;13.30;;
4827;SDS011;2428;48.732;9.148;2022-08-19T05:57:06;19.73;;;12.70;;
4827;SDS011;2428;48.732;9.148;2022-08-19T05:59:33;20.23;;;13.10;;
4827;SDS011;2428;48.732;9.148;2022-08-19T06:02:00;18.70;;;12.47;;
4827;SDS011;2428;48.732;9.148;2022-08-19T06:04:26;18.00;;;12.07;;
4827;SDS011;2428;48.732;9.148;2022-08-19T06:06:53;18.63;;;13.00;;
4827;SDS011;2428;48.732;9.148;2022-08-19T06:09:20;15.67;;;12.73;;
4827;SDS011;2428;48.732;9.148;2022-08-19T06:11:51;19.97;;;14.30;;
4827;SDS011;2428;48.732;9.148;2022-08-19T06:14:20;22.60;;;12.87;;
4827;SDS011;2428;48.732;9.148;2022-08-19T06:16:48;18.30;;;13.77;;
4827;SDS011;2428;48.732;9.148;2022-08-19T06:19:18;23.27;;;12.90;;
4827;SDS011;2428;48.732;9.148;2022-08-19T06:21:46;17.90;;;12.40;;
4827;SDS011;2428;48.732;9.148;2022-08-19T06:24:14;20.00;;;13.23;;
4827;SDS011;2428;48.732;9.148;2022-08-19T06:26:42;18.73;;;13.30;;
4827;SDS011;2428;48.732;9.148;2022-08-19T06:29:11;18.30;;;12.47;;
4827;SDS011;2428;48.732;9.148;2022-08-19T06:31:40;20.93;;;13.30;;
4827;SDS011;2428;48.732;9.148;2022-08-19T06:34:11;24.03;;;12.83;;
4827;SDS011;2428;48.732;9.148;2022-08-19T06:36:38;20.40;;;13.63;;
4827;SDS011;2428;48.732;9.148;2022-08-19T06:39:09;18.00;;;12.00;;
4827;SDS011;2428;48.732;9.148;2022-08-19T06:41:37;19.83;;;13.87;;
4827;SDS011;2428;48.732;9.148;2022-08-19T06:44:06;19.60;;;12.80;;
4827;SDS011;2428;48.732;9.148;2022-08-19T06:46:32;22.00;;;13.93;;
4827;SDS011;2428;48.732;9.148;2022-08-19T06:48:58;17.40;;;11.80;;
4827;SDS011;2428;48.732;9.148;2022-08-19T06:51:24;22.13;;;13.93;;
4827;SDS011;2428;48.732;9.148;2022-08-19T06:53:51;21.43;;;13.43;;
4827;SDS011;2428;48.732;9.148;2022-08-19T06:56:19;17.80;;;12.67;;
4827;SDS011;2428;48.732;9.148;2022-08-19T06:58:47;22.03;;;13.90;;
4827;SDS011;2428;48.732;9.148;2022-08-19T07:01:18;19.97;;;14.47;;
4827;SDS011;2428;48.732;9.148;2022-08-19T07:03:45;20.10;;;14.50;;
4827;SDS011;2428;48.732;9.148;2022-08-19T07:06:12;18.70;;;13.00;;
4827;SDS011;2428;48.732;9.148;2022-08-19T07:08:42;18.97;;;13.87;;
4827;SDS011;2428;48.732;9.148;2022-08-19T07:11:11;18.67;;;13.23;;
4827;SDS011;2428;48.732;9.148;2022-08-19T07:13:40;21.13;;;13.27;;
4827;SDS011;2428;48.732;9.148;2022-08-19T07:16:12;20.33;;;14.10;;
4827;SDS011;2428;48.732;9.148;2022-08-19T07:18:41;20.10;;;12.80;;
4827;SDS011;2428;48.732;9.148;2022-08-19T07:21:12;18.47;;;13.40;;
4827;SDS011;2428;48.732;9.148;2022-08-19T07:23:40;18.70;;;13.40;;
4827;SDS011;2428;48.732;9.148;2022-08-19T07:26:07;20.03;;;12.77;;
4827;SDS011;2428;48.732;9.148;2022-08-19T07:28:46;18.77;;;13.80;;
4827;SDS011;2428;48.732;9.148;2022-08-19T07:31:13;19.80;;;12.73;;
4827;SDS011;2428;48.732;9.148;2022-08-19T07:33:43;20.90;;;13.27;;
4827;SDS011;2428;48.732;9.148;2022-08-19T07:36:10;17.80;;;13.50;;
4827;SDS011;2428;48.732;9.148;2022-08-19T07:38:38;18.50;;;13.03;;
4827;SDS011;2428;48.732;9.148;2022-08-19T07:41:11;19.00;;;12.63;;
4827;SDS011;2428;48.732;9.148;2022-08-19T07:43:39;16.90;;;11.87;;
4827;SDS011;2428;48.732;9.148;2022-08-19T07:46:04;19.50;;;12.43;;
4827;SDS011;2428;48.732;9.148;2022-08-19T07:48:31;19.07;;;12.23;;
4827;SDS011;2428;48.732;9.148;2022-08-19T07:50:59;18.40;;;12.20;;
4827;SDS011;2428;48.732;9.148;2022-08-19T07:53:27;22.00;;;13.00;;
4827;SDS011;2428;48.732;9.148;2022-08-19T07:55:53;15.83;;;11.10;;
4827;SDS011;2428;48.732;9.148;2022-08-19T07:58:20;20.20;;;12.70;;
4827;SDS011;2428;48.732;9.148;2022-08-19T08:00:48;20.70;;;12.93;;
4827;SDS011;2428;48.732;9.148;2022-08-19T08:03:15;16.53;;;11.90;;
4827;SDS011;2428;48.732;9.148;2022-08-19T08:05:42;18.57;;;12.90;;
4827;SDS011;2428;48.732;9.148;2022-08-19T08:08:26;19.37;;;12.83;;
4827;SDS011;2428;48.732;9.148;2022-08-19T08:11:02;19.33;;;11.23;;
4827;SDS011;2428;48.732;9.148;2022-08-19T08:13:28;17.63;;;12.27;;
4827;SDS011;2428;48.732;9.148;2022-08-19T08:15:54;17.20;;;12.40;;
4827;SDS011;2428;48.732;9.148;2022-08-19T08:18:19;18.30;;;11.93;;
4827;SDS011;2428;48.732;9.148;2022-08-19T08:20:45;20.37;;;14.07;;
4827;SDS011;2428;48.732;9.148;2022-08-19T08:23:11;18.03;;;11.90;;
4827;SDS011;2428;48.732;9.148;2022-08-19T08:25:50;18.10;;;11.93;;
4827;SDS011;2428;48.732;9.148;2022-08-19T08:28:20;20.50;;;12.60;;
4827;SDS011;2428;48.732;9.148;2022-08-19T08:30:47;15.80;;;11.70;;
4827;SDS011;2428;48.732;9.148;2022-08-19T08:33:14;16.50;;;11.93;;
4827;SDS011;2428;48.732;9.148;2022-08-19T08:35:43;17.87;;;11.90;;
4827;SDS011;2428;48.732;9.148;2022-08-19T08:38:10;17.50;;;12.50;;
4827;SDS011;2428;48.732;9.148;2022-08-19T08:43:38;17.17;;;12.33;;
4827;SDS011;2428;48.732;9.148;2022-08-19T08:48:50;20.53;;;13.73;;
4827;SDS011;2428;48.732;9.148;2022-08-19T08:51:34;19.43;;;12.83;;
4827;SDS011;2428;48.732;9.148;2022-08-19T08:54:07;15.90;;;11.80;;
4827;SDS011;2428;48.732;9.148;2022-08-19T08:56:37;20.40;;;12.47;;
4827;SDS011;2428;48.732;9.148;2022-08-19T08:59:05;16.80;;;11.60;;
4827;SDS011;2428;48.732;9.148;2022-08-19T09:01:38;16.20;;;11.60;;
4827;SDS011;2428;48.732;9.148;2022-08-19T09:04:05;20.70;;;14.20;;
4827;SDS011;2428;48.732;9.148;2022-08-19T09:14:47;17.43;;;11.80;;
4827;SDS011;2428;48.732;9.148;2022-08-19T09:17:17;19.47;;;13.20;;
4827;SDS011;2428;48.732;9.148;2022-08-19T09:19:55;15.70;;;11.70;;
4827;SDS011;2428;48.732;9.148;2022-08-19T09:22:20;18.03;;;11.93;;
4827;SDS011;2428;48.732;9.148;2022-08-19T09:24:50;17.97;;;13.87;;
4827;SDS011;2428;48.732;9.148;2022-08-19T09:27:20;20.43;;;12.53;;
4827;SDS011;2428;48.732;9.148;2022-08-19T09:29:46;16.33;;;11.53;;
4827;SDS011;2428;48.732;9.148;2022-08-19T09:32:14;14.43;;;11.90;;
4827;SDS011;2428;48.732;9.148;2022-08-19T09:34:40;17.33;;;12.03;;
4827;SDS011;2428;48.732;9.148;2022-08-19T09:37:06;18.17;;;12.00;;
4827;SDS011;2428;48.732;9.148;2022-08-19T09:39:32;16.90;;;12.00;;
4827;SDS011;2428;48.732;9.148;2022-08-19T09:41:57;16.33;;;11.73;;
4827;SDS011;2428;48.732;9.148;2022-08-19T09:44:23;13.50;;;11.33;;
4827;SDS011;2428;48.732;9.148;2022-08-19T09:46:48;19.93;;;11.97;;
4827;SDS011;2428;48.732;9.148;2022-08-19T09:49:16;14.47;;;10.80;;
4827;SDS011;2428;48.732;9.148;2022-08-19T09:51:43;15.27;;;11.50;;
4827;SDS011;2428;48.732;9.148;2022-08-19T09:54:08;13.60;;;10.97;;
4827;SDS011;2428;48.732;9.148;2022-08-19T09:56:34;15.23;;;12.10;;
4827;SDS011;2428;48.732;9.148;2022-08-19T09:59:00;16.37;;;12.07;;
4827;SDS011;2428;48.732;9.148;2022-08-19T10:01:29;15.27;;;11.77;;
4827;SDS011;2428;48.732;9.148;2022-08-19T10:03:56;13.97;;;10.60;;
4827;SDS011;2428;48.732;9.148;2022-08-19T10:06:25;12.80;;;10.83;;
4827;SDS011;2428;48.732;9.148;2022-08-19T10:08:54;16.30;;;12.07;;
4827;SDS011;2428;48.732;9.148;2022-08-19T10:11:20;14.30;;;11.20;;
4827;SDS011;2428;48.732;9.148;2022-08-19T10:13:47;16.40;;;11.40;;
4827;SDS011;2428;48.732;9.148;2022-08-19T10:16:15;11.93;;;9.80;;
4827;SDS011;2428;48.732;9.148;2022-08-19T10:18:47;15.93;;;10.50;;
4827;SDS011;2428;48.732;9.148;2022-08-19T10:21:15;13.50;;;10.57;;
4827;SDS011;2428;48.732;9.148;2022-08-19T10:23:45;13.73;;;10.13;;
4827;SDS011;2428;48.732;9.148;2022-08-19T10:26:21;14.60;;;11.07;;
4827;SDS011;2428;48.732;9.148;2022-08-19T10:28:50;16.20;;;11.10;;
4827;SDS011;2428;48.732;9.148;2022-08-19T10:31:17;12.90;;;10.37;;
4827;SDS011;2428;48.732;9.148;2022-08-19T10:33:46;13.27;;;10.50;;
4827;SDS011;2428;48.732;9.148;2022-08-19T10:36:14;12.83;;;9.87;;
4827;SDS011;2428;48.732;9.148;2022-08-19T10:38:45;14.50;;;10.43;;
4827;SDS011;2428;48.732;9.148;2022-08-19T10:41:16;12.27;;;9.53;;
4827;SDS011;2428;48.732;9.148;2022-08-19T10:43:49;11.43;;;10.00;;
4827;SDS011;2428;48.732;9.148;2022-08-19T10:46:17;14.27;;;9.80;;
4827;SDS011;2428;48.732;9.148;2022-08-19T10:48:43;13.83;;;9.83;;
4827;SDS011;2428;48.732;9.148;2022-08-19T10:51:09;13.67;;;10.60;;
4827;SDS011;2428;48.732;9.148;2022-08-19T10:53:54;11.23;;;9.00;;
4827;SDS011;2428;48.732;9.148;2022-08-19T10:56:20;12.90;;;10.03;;
4827;SDS011;2428;48.732;9.148;2022-08-19T10:59:06;13.20;;;9.93;;
4827;SDS011;2428;48.732;9.148;2022-08-19T11:01:32;11.97;;;8.97;;
4827;SDS011;2428;48.732;9.148;2022-08-19T11:03:59;10.90;;;8.20;;
4827;SDS011;2428;48.732;9.148;2022-08-19T11:06:26;11.90;;;9.53;;
4827;SDS011;2428;48.732;9.148;2022-08-19T11:08:55;12.00;;;9.37;;
4827;SDS011;2428;48.732;9.148;2022-08-19T11:11:21;13.20;;;9.70;;
4827;SDS011;2428;48.732;9.148;2022-08-19T11:13:48;10.93;;;8.73;;
4827;SDS011;2428;48.732;9.148;2022-08-19T11:16:25;9.80;;;8.17;;
4827;SDS011;2428;48.732;9.148;2022-08-19T11:18:56;10.20;;;8.47;;
4827;SDS011;2428;48.732;9.148;2022-08-19T11:23:51;11.20;;;9.80;;
4827;SDS011;2428;48.732;9.148;2022-08-19T11:26:20;9.67;;;8.70;;
4827;SDS011;2428;48.732;9.148;2022-08-19T11:28:47;9.87;;;8.23;;
4827;SDS011;2428;48.732;9.148;2022-08-19T11:31:15;10.23;;;8.60;;
4827;SDS011;2428;48.732;9.148;2022-08-19T11:33:43;10.00;;;8.83;;
4827;SDS011;2428;48.732;9.148;2022-08-19T11:36:11;11.27;;;8.40;;
4827;SDS011;2428;48.732;9.148;2022-08-19T11:38:37;9.40;;;8.30;;
4827;SDS011;2428;48.732;9.148;2022-08-19T11:41:05;12.57;;;10.10;;
4827;SDS011;2428;48.732;9.148;2022-08-19T11:43:32;9.53;;;8.30;;
4827;SDS011;2428;48.732;9.148;2022-08-19T11:46:09;13.17;;;9.63;;
4827;SDS011;2428;48.732;9.148;2022-08-19T11:48:36;10.17;;;9.13;;
4827;SDS011;2428;48.732;9.148;2022-08-19T11:51:10;10.57;;;9.10;;
4827;SDS011;2428;48.732;9.148;2022-08-19T11:53:38;10.13;;;9.03;;
4827;SDS011;2428;48.732;9.148;2022-08-19T11:56:04;11.10;;;9.70;;
4827;SDS011;2428;48.732;9.148;2022-08-19T11:58:31;10.00;;;8.40;;
4827;SDS011;2428;48.732;9.148;2022-08-19T12:00:57;9.60;;;8.30;;
4827;SDS011;2428;48.732;9.148;2022-08-19T12:03:23;9.37;;;7.70;;
4827;SDS011;2428;48.732;9.148;2022-08-19T12:05:49;12.67;;;8.03;;
4827;SDS011;2428;48.732;9.148;2022-08-19T12:08:15;10.07;;;8.57;;
4827;SDS011;2428;48.732;9.148;2022-08-19T12:10:42;10.73;;;9.10;;
4827;SDS011;2428;48.732;9.148;2022-08-19T12:13:11;10.60;;;8.57;;
4827;SDS011;2428;48.732;9.148;2022-08-19T12:15:45;9.30;;;6.87;;
4827;SDS011;2428;48.732;9.148;2022-08-19T12:18:12;9.77;;;8.57;;
4827;SDS011;2428;48.732;9.148;2022-08-19T12:20:39;8.87;;;7.50;;
4827;SDS011;2428;48.732;9.148;2022-08-19T12:23:06;8.73;;;7.60;;
4827;SDS011;2428;48.732;9.148;2022-08-19T12:25:34;9.53;;;8.53;;
4827;SDS011;2428;48.732;9.148;2022-08-19T12:28:00;11.00;;;8.23;;
4827;SDS011;2428;48.732;9.148;2022-08-19T12:30:27;8.70;;;7.40;;
4827;SDS011;2428;48.732;9.148;2022-08-19T12:32:53;9.70;;;7.80;;
4827;SDS011;2428;48.732;9.148;2022-08-19T12:35:18;9.20;;;8.20;;
4827;SDS011;2428;48.732;9.148;2022-08-19T12:37:47;7.90;;;7.10;;
4827;SDS011;2428;48.732;9.148;2022-08-19T12:40:14;7.73;;;6.93;;
4827;SDS011;2428;48.732;9.148;2022-08-19T12:42:41;10.67;;;8.37;;
4827;SDS011;2428;48.732;9.148;2022-08-19T12:45:08;10.90;;;7.70;;
4827;SDS011;2428;48.732;9.148;2022-08-19T12:47:35;7.07;;;6.03;;
4827;SDS011;2428;48.732;9.148;2022-08-19T12:50:01;8.83;;;7.73;;
4827;SDS011;2428;48.732;9.148;2022-08-19T12:52:27;10.97;;;9.10;;
4827;SDS011;2428;48.732;9.148;2022-08-19T12:54:53;12.50;;;10.37;;
4827;SDS011;2428;48.732;9.148;2022-08-19T12:57:26;17.13;;;12.17;;
4827;SDS011;2428;48.732;9.148;2022-08-19T12:59:53;15.90;;;12.30;;
4827;SDS011;2428;48.732;9.148;2022-08-19T13:02:19;16.97;;;12.10;;
4827;SDS011;2428;48.732;9.148;2022-08-19T13:04:44;16.10;;;13.20;;
4827;SDS011;2428;48.732;9.148;2022-08-19T13:07:10;18.33;;;13.00;;
4827;SDS011;2428;48.732;9.148;2022-08-19T13:09:36;18.07;;;12.97;;
4827;SDS011;2428;48.732;9.148;2022-08-19T13:12:02;16.03;;;13.90;;
4827;SDS011;2428;48.732;9.148;2022-08-19T13:14:32;21.57;;;14.00;;
4827;SDS011;2428;48.732;9.148;2022-08-19T13:16:59;20.47;;;14.20;;
4827;SDS011;2428;48.732;9.148;2022-08-19T13:19:24;21.23;;;13.83;;
4827;SDS011;2428;48.732;9.148;2022-08-19T13:21:51;22.63;;;14.67;;
4827;SDS011;2428;48.732;9.148;2022-08-19T13:24:18;22.23;;;15.20;;
4827;SDS011;2428;48.732;9.148;2022-08-19T13:26:44;19.43;;;14.77;;
4827;SDS011;2428;48.732;9.148;2022-08-19T13:29:09;26.00;;;15.90;;
4827;SDS011;2428;48.732;9.148;2022-08-19T13:31:54;23.60;;;15.27;;
4827;SDS011;2428;48.732;9.148;2022-08-19T13:34:38;21.60;;;16.50;;
4827;SDS011;2428;48.732;9.148;2022-08-19T13:37:04;22.57;;;15.60;;
4827;SDS011;2428;48.732;9.148;2022-08-19T13:39:30;23.70;;;15.97;;
4827;SDS011;2428;48.732;9.148;2022-08-19T13:41:57;23.93;;;15.67;;
4827;SDS011;2428;48.732;9.148;2022-08-19T13:44:25;24.30;;;15.87;;
4827;SDS011;2428;48.732;9.148;2022-08-19T13:46:54;21.10;;;15.63;;
4827;SDS011;2428;48.732;9.148;2022-08-19T13:49:25;21.13;;;14.73;;
4827;SDS011;2428;48.732;9.148;2022-08-19T13:51:52;19.30;;;14.60;;
4827;SDS011;2428;48.732;9.148;2022-08-19T13:54:18;21.30;;;15.17;;
4827;SDS011;2428;48.732;9.148;2022-08-19T13:56:44;24.50;;;16.60;;
4827;SDS011;2428;48.732;9.148;2022-08-19T13:59:10;23.10;;;16.07;;
4827;SDS011;2428;48.732;9.148;2022-08-19T14:01:37;26.70;;;17.63;;
4827;SDS011;2428;48.732;9.148;2022-08-19T14:04:03;22.83;;;15.40;;
4827;SDS011;2428;48.732;9.148;2022-08-19T14:06:30;22.00;;;15.90;;
4827;SDS011;2428;48.732;9.148;2022-08-19T14:08:55;22.60;;;16.03;;
4827;SDS011;2428;48.732;9.148;2022-08-19T14:11:21;26.20;;;18.13;;
4827;SDS011;2428;48.732;9.148;2022-08-19T14:13:48;21.93;;;15.30;;
4827;SDS011;2428;48.732;9.148;2022-08-19T14:16:14;21.80;;;14.80;;
4827;SDS011;2428;48.732;9.148;2022-08-19T14:18:41;21.97;;;15.70;;
4827;SDS011;2428;48.732;9.148;2022-08-19T14:21:07;23.90;;;15.70;;
4827;SDS011;2428;48.732;9.148;2022-08-19T14:23:38;27.37;;;16.23;;
4827;SDS011;2428;48.732;9.148;2022-08-19T14:26:08;26.20;;;16.87;;
4827;SDS011;2428;48.732;9.148;2022-08-19T14:28:36;21.30;;;15.20;;
4827;SDS011;2428;48.732;9.148;2022-08-19T14:31:03;21.20;;;15.10;;
4827;SDS011;2428;48.732;9.148;2022-08-19T14:33:29;20.87;;;14.00;;
4827;SDS011;2428;48.732;9.148;2022-08-19T14:35:54;21.13;;;14.00;;
4827;SDS011;2428;48.732;9.148;2022-08-19T14:38:20;21.37;;;15.10;;
4827;SDS011;2428;48.732;9.148;2022-08-19T14:40:46;21.37;;;14.57;;
4827;SDS011;2428;48.732;9.148;2022-08-19T14:43:11;20.50;;;14.50;;
4827;SDS011;2428;48.732;9.148;2022-08-19T14:45:37;20.43;;;13.50;;
4827;SDS011;2428;48.732;9.148;2022-08-19T14:48:05;17.73;;;13.80;;
4827;SDS011;2428;48.732;9.148;2022-08-19T14:50:32;19.33;;;13.50;;
4827;SDS011;2428;48.732;9.148;2022-08-19T14:53:00;18.43;;;13.80;;
4827;SDS011;2428;48.732;9.148;2022-08-19T14:55:27;19.00;;;13.63;;
4827;SDS011;2428;48.732;9.148;2022-08-19T14:57:52;19.13;;;12.43;;
4827;SDS011;2428;48.732;9.148;2022-08-19T15:00:18;19.53;;;14.87;;
4827;SDS011;2428;48.732;9.148;2022-08-19T15:02:44;17.73;;;12.90;;
4827;SDS011;2428;48.732;9.148;2022-08-19T15:05:09;17.60;;;12.40;;
4827;SDS011;2428;48.732;9.148;2022-08-19T15:07:36;20.30;;;14.00;;
4827;SDS011;2428;48.732;9.148;2022-08-19T15:10:03;16.83;;;13.57;;
4827;SDS011;2428;48.732;9.148;2022-08-19T15:12:29;17.67;;;13.60;;
4827;SDS011;2428;48.732;9.148;2022-08-19T15:14:55;15.50;;;11.40;;